Date,TemperatureHighF,TemperatureAvgF,TemperatureLowF,DewpointHighF,DewpointAvgF,DewpointLowF,HumidityHigh,HumidityAvg,HumidityLow,PressureMaxIn,PressureMinIn,WindSpeedMaxMPH,WindSpeedAvgMPH,GustSpeedMaxMPH,PrecipitationSumIn
2013-8-1,80,67,53,57,52,46,95,63,33,29.03,28.88,14,3,14,0.00
2013-8-2,77,67,55,57,51,45,98,63,33,29.03,28.85,13,2,13,0.00
2013-8-3,77,65,50,56,48,43,98,59,31,29.17,29.03,14,2,14,0.00
2013-8-4,78,64,51,55,51,45,98,66,34,29.23,29.06,9,2,9,0.00
2013-8-5,73,65,58,66,61,53,98,85,71,29.09,28.85,9,1,9,0.04
2013-8-6,86,71,62,68,61,52,98,73,40,28.88,28.73,16,2,16,0.04
2013-8-7,77,66,55,62,55,45,98,72,34,29.03,28.79,14,2,15,0.00
2013-8-8,81,65,50,59,51,45,98,65,33,29.06,29.00,9,2,9,0.00
2013-8-9,77,67,57,60,52,44,98,63,33,29.12,29.00,13,2,14,0.00
2013-8-10,76,66,56,54,51,44,90,60,35,29.17,29.12,9,2,9,0.00
2013-8-11,79,66,56,63,58,53,98,76,45,29.12,29.03,7,1,8,0.00
2013-8-12,80,67,57,65,56,47,98,71,34,29.09,29.00,19,3,19,0.00
2013-8-13,74,62,50,53,47,40,98,63,34,29.17,29.09,13,2,13,0.00
2013-8-14,77,64,51,52,48,42,95,60,31,29.20,29.12,12,1,13,0.00
2013-8-15,82,66,52,57,50,43,98,60,28,29.14,29.09,9,2,10,0.00
2013-8-16,85,68,53,55,51,47,98,60,30,29.20,29.14,9,2,9,0.00
2013-8-17,85,69,52,60,52,48,98,62,30,29.23,29.14,9,2,9,0.00
2013-8-18,85,70,54,60,54,49,98,62,32,29.17,29.06,11,2,11,0.00
2013-8-19,86,73,60,65,60,55,90,67,42,29.09,28.97,9,2,9,0.00
2013-8-20,91,78,65,69,66,62,94,68,44,29.00,28.91,14,2,14,0.00
2013-8-21,89,78,68,74,68,66,98,74,52,29.03,28.91,12,2,13,0.25